PWSweather.com
Personal Weather Stations
Station Observations
THENIOUX
Tomatologue, TheniouxFR 18100

TomatologueTheniouxFR 18100

Lat: 47.2574218, Lon: 1.928950900000018

Elevation: 406

Station Type: davis vue

http://www.meteo.gedfr.co/index.php

Latest ConditionsUpdated 7:17:22 PM GMT+01:01 Tuesday, Sep 18, 2018
Currently Today's Max Today's Min Today's Average
Temperature 72.3°F22.4°C 82.4°F28.0°C 63.9°F17.7°C 71.8°F22.1°C
Dew Point 58.6°F14.8°C 65.1°F18.4°C 55.3°F12.9°C 59.7°F15.4°C
Winds 1.0 mph SSE1.6 kmh SSE 7.0 mph -11.3 kmh - - 1.8 mph 2.9 kmh
Wind Gusts -- -- - -
Humidity 62% 79% 53% 66%
Pressure 30.11 in1019.6 mb 30.12 in1020.0 mb 29.99 in1015.6 mb -
Hour Temp Dew Point Humidity Winds Wind Gusts Pressure Precip Precip Rate Daily Precip Total
07:17 PM 72.3°F22.4°C 58.6°F14.8°C 62% 1.0 mph SSE1.6 kmh SSE -- 30.11 in1019.6 mb 0.00 in0.0 mm 0.00 in0.0 mm 0.00 in0.0 mm
07:12 PM 73.2°F22.9°C 58.9°F14.9°C 61% 1.0 mph SSE1.6 kmh SSE -- 30.11 in1019.6 mb 0.00 in0.0 mm 0.00 in0.0 mm 0.00 in0.0 mm
07:07 PM 73.2°F22.9°C 58.9°F14.9°C 61% 1.0 mph SSE1.6 kmh SSE -- 30.11 in1019.6 mb 0.00 in0.0 mm 0.00 in0.0 mm 0.00 in0.0 mm
07:02 PM 74.1°F23.4°C 59.3°F15.2°C 60% 1.0 mph E1.6 kmh E -- 30.11 in1019.6 mb 0.00 in0.0 mm 0.00 in0.0 mm 0.00 in0.0 mm
06:57 PM 74.1°F23.4°C 59.3°F15.2°C 60% 1.0 mph E1.6 kmh E -- 30.11 in1019.6 mb 0.00 in0.0 mm 0.00 in0.0 mm 0.00 in0.0 mm
06:52 PM 75.0°F23.9°C 60.2°F15.7°C 60% 1.0 mph E1.6 kmh E -- 30.10 in1019.3 mb 0.00 in0.0 mm 0.00 in0.0 mm 0.00 in0.0 mm
06:47 PM 75.0°F23.9°C 60.2°F15.7°C 60% 1.0 mph E1.6 kmh E -- 30.10 in1019.3 mb 0.00 in0.0 mm 0.00 in0.0 mm 0.00 in0.0 mm
06:42 PM 75.9°F24.4°C 60.5°F15.8°C 59% 1.0 mph E1.6 kmh E -- 30.10 in1019.3 mb 0.00 in0.0 mm 0.00 in0.0 mm 0.00 in0.0 mm
06:37 PM 75.9°F24.4°C 60.5°F15.8°C 59% 1.0 mph E1.6 kmh E -- 30.10 in1019.3 mb 0.00 in0.0 mm 0.00 in0.0 mm 0.00 in0.0 mm
06:32 PM 76.6°F24.8°C 60.7°F15.9°C 58% 1.0 mph E1.6 kmh E -- 30.10 in1019.3 mb 0.00 in0.0 mm 0.00 in0.0 mm 0.00 in0.0 mm
06:27 PM 76.6°F24.8°C 60.7°F15.9°C 58% 1.0 mph E1.6 kmh E -- 30.10 in1019.3 mb 0.00 in0.0 mm 0.00 in0.0 mm 0.00 in0.0 mm
06:22 PM 77.2°F25.1°C 60.7°F15.9°C 57% 1.0 mph NE1.6 kmh NE -- 30.10 in1019.3 mb 0.00 in0.0 mm 0.00 in0.0 mm 0.00 in0.0 mm
06:17 PM 77.2°F25.1°C 60.7°F15.9°C 57% 1.0 mph NE1.6 kmh NE -- 30.10 in1019.3 mb 0.00 in0.0 mm 0.00 in0.0 mm 0.00 in0.0 mm
06:12 PM 77.7°F25.4°C 61.2°F16.2°C 57% 1.0 mph E1.6 kmh E -- 30.10 in1019.3 mb 0.00 in0.0 mm 0.00 in0.0 mm 0.00 in0.0 mm
06:07 PM 77.7°F25.4°C 61.2°F16.2°C 57% 1.0 mph E1.6 kmh E -- 30.10 in1019.3 mb 0.00 in0.0 mm 0.00 in0.0 mm 0.00 in0.0 mm
06:02 PM 77.9°F25.5°C 61.4°F16.3°C 57% 1.0 mph NW1.6 kmh NW -- 30.09 in1019.0 mb 0.00 in0.0 mm 0.00 in0.0 mm 0.00 in0.0 mm
05:57 PM 77.9°F25.5°C 61.4°F16.3°C 57% 1.0 mph NW1.6 kmh NW -- 30.09 in1019.0 mb 0.00 in0.0 mm 0.00 in0.0 mm 0.00 in0.0 mm
05:52 PM 78.3°F25.7°C 61.3°F16.3°C 56% 1.0 mph ENE1.6 kmh ENE -- 30.09 in1019.0 mb 0.00 in0.0 mm 0.00 in0.0 mm 0.00 in0.0 mm
05:47 PM 78.3°F25.7°C 61.3°F16.3°C 56% 1.0 mph ENE1.6 kmh ENE -- 30.09 in1019.0 mb 0.00 in0.0 mm 0.00 in0.0 mm 0.00 in0.0 mm
05:42 PM 78.3°F25.7°C 61.3°F16.3°C 56% 1.0 mph ENE1.6 kmh ENE -- 30.09 in1019.0 mb 0.00 in0.0 mm 0.00 in0.0 mm 0.00 in0.0 mm
05:37 PM 78.6°F25.9°C 61.6°F16.4°C 56% 1.0 mph SE1.6 kmh SE -- 30.10 in1019.3 mb 0.00 in0.0 mm 0.00 in0.0 mm 0.00 in0.0 mm
05:32 PM 78.6°F25.9°C 61.6°F16.4°C 56% 1.0 mph SE1.6 kmh SE -- 30.10 in1019.3 mb 0.00 in0.0 mm 0.00 in0.0 mm 0.00 in0.0 mm
05:27 PM 78.8°F26.0°C 61.2°F16.2°C 55% 1.0 mph E1.6 kmh E -- 30.10 in1019.3 mb 0.00 in0.0 mm 0.00 in0.0 mm 0.00 in0.0 mm
05:22 PM 78.8°F26.0°C 61.2°F16.2°C 55% 1.0 mph E1.6 kmh E -- 30.10 in1019.3 mb 0.00 in0.0 mm 0.00 in0.0 mm 0.00 in0.0 mm
05:17 PM 79.3°F26.3°C 61.2°F16.2°C 54% 1.0 mph E1.6 kmh E -- 30.09 in1019.0 mb 0.00 in0.0 mm 0.00 in0.0 mm 0.00 in0.0 mm
05:12 PM 79.3°F26.3°C 61.2°F16.2°C 54% 1.0 mph E1.6 kmh E -- 30.09 in1019.0 mb 0.00 in0.0 mm 0.00 in0.0 mm 0.00 in0.0 mm
05:07 PM 79.3°F26.3°C 61.2°F16.2°C 54% 1.0 mph E1.6 kmh E -- 30.09 in1019.0 mb 0.00 in0.0 mm 0.00 in0.0 mm 0.00 in0.0 mm
05:02 PM 79.3°F26.3°C 61.2°F16.2°C 54% 1.0 mph E1.6 kmh E -- 30.09 in1019.0 mb 0.00 in0.0 mm 0.00 in0.0 mm 0.00 in0.0 mm
04:57 PM 79.5°F26.4°C 61.4°F16.3°C 54% 3.0 mph W4.8 kmh W -- 30.10 in1019.3 mb 0.00 in0.0 mm 0.00 in0.0 mm 0.00 in0.0 mm
04:52 PM 79.5°F26.4°C 61.4°F16.3°C 54% 3.0 mph W4.8 kmh W -- 30.10 in1019.3 mb 0.00 in0.0 mm 0.00 in0.0 mm 0.00 in0.0 mm
04:47 PM 79.7°F26.5°C 62.1°F16.7°C 55% 3.0 mph W4.8 kmh W -- 30.10 in1019.3 mb 0.00 in0.0 mm 0.00 in0.0 mm 0.00 in0.0 mm
04:42 PM 79.7°F26.5°C 62.1°F16.7°C 55% 3.0 mph W4.8 kmh W -- 30.10 in1019.3 mb 0.00 in0.0 mm 0.00 in0.0 mm 0.00 in0.0 mm
04:37 PM 79.5°F26.4°C 62.4°F16.9°C 56% 2.0 mph W3.2 kmh W -- 30.10 in1019.3 mb 0.00 in0.0 mm 0.00 in0.0 mm 0.00 in0.0 mm
04:32 PM 79.5°F26.4°C 62.4°F16.9°C 56% 2.0 mph W3.2 kmh W -- 30.10 in1019.3 mb 0.00 in0.0 mm 0.00 in0.0 mm 0.00 in0.0 mm
04:27 PM 79.5°F26.4°C 62.4°F16.9°C 56% 2.0 mph W3.2 kmh W -- 30.10 in1019.3 mb 0.00 in0.0 mm 0.00 in0.0 mm 0.00 in0.0 mm
04:22 PM 79.5°F26.4°C 62.4°F16.9°C 56% 2.0 mph W3.2 kmh W -- 30.10 in1019.3 mb 0.00 in0.0 mm 0.00 in0.0 mm 0.00 in0.0 mm
04:17 PM 79.5°F26.4°C 62.4°F16.9°C 56% 2.0 mph W3.2 kmh W -- 30.10 in1019.3 mb 0.00 in0.0 mm 0.00 in0.0 mm 0.00 in0.0 mm
04:12 PM 79.5°F26.4°C 62.4°F16.9°C 56% 2.0 mph W3.2 kmh W -- 30.10 in1019.3 mb 0.00 in0.0 mm 0.00 in0.0 mm 0.00 in0.0 mm
04:07 PM 79.7°F26.5°C 62.6°F17.0°C 56% 1.0 mph W1.6 kmh W -- 30.10 in1019.3 mb 0.00 in0.0 mm 0.00 in0.0 mm 0.00 in0.0 mm
04:02 PM 79.7°F26.5°C 62.6°F17.0°C 56% 1.0 mph W1.6 kmh W -- 30.10 in1019.3 mb 0.00 in0.0 mm 0.00 in0.0 mm 0.00 in0.0 mm
03:57 PM 79.9°F26.6°C 62.2°F16.8°C 55% 1.0 mph N1.6 kmh N -- 30.10 in1019.3 mb 0.00 in0.0 mm 0.00 in0.0 mm 0.00 in0.0 mm
03:52 PM 79.9°F26.6°C 62.2°F16.8°C 55% 1.0 mph N1.6 kmh N -- 30.10 in1019.3 mb 0.00 in0.0 mm 0.00 in0.0 mm 0.00 in0.0 mm
03:47 PM 79.9°F26.6°C 62.2°F16.8°C 55% 1.0 mph W1.6 kmh W -- 30.11 in1019.6 mb 0.00 in0.0 mm 0.00 in0.0 mm 0.00 in0.0 mm
03:42 PM 79.9°F26.6°C 62.2°F16.8°C 55% 1.0 mph W1.6 kmh W -- 30.11 in1019.6 mb 0.00 in0.0 mm 0.00 in0.0 mm 0.00 in0.0 mm
03:37 PM 80.1°F26.7°C 61.9°F16.6°C 54% 2.0 mph W3.2 kmh W -- 30.09 in1019.0 mb 0.00 in0.0 mm 0.00 in0.0 mm 0.00 in0.0 mm
03:32 PM 80.1°F26.7°C 61.9°F16.6°C 54% 2.0 mph W3.2 kmh W -- 30.09 in1019.0 mb 0.00 in0.0 mm 0.00 in0.0 mm 0.00 in0.0 mm
03:27 PM 80.4°F26.9°C 61.7°F16.5°C 53% 3.0 mph W4.8 kmh W -- 30.09 in1019.0 mb 0.00 in0.0 mm 0.00 in0.0 mm 0.00 in0.0 mm
03:22 PM 80.4°F26.9°C 61.7°F16.5°C 53% 3.0 mph W4.8 kmh W -- 30.09 in1019.0 mb 0.00 in0.0 mm 0.00 in0.0 mm 0.00 in0.0 mm
03:17 PM 81.0°F27.2°C 62.7°F17.1°C 54% 2.0 mph W3.2 kmh W -- 30.09 in1019.0 mb 0.00 in0.0 mm 0.00 in0.0 mm 0.00 in0.0 mm
03:12 PM 81.0°F27.2°C 62.7°F17.1°C 54% 2.0 mph W3.2 kmh W -- 30.09 in1019.0 mb 0.00 in0.0 mm 0.00 in0.0 mm 0.00 in0.0 mm
03:07 PM 81.3°F27.4°C 63.1°F17.3°C 54% 4.0 mph NW6.4 kmh NW -- 30.09 in1019.0 mb 0.00 in0.0 mm 0.00 in0.0 mm 0.00 in0.0 mm
03:02 PM 81.3°F27.4°C 63.1°F17.3°C 54% 4.0 mph NW6.4 kmh NW -- 30.09 in1019.0 mb 0.00 in0.0 mm 0.00 in0.0 mm 0.00 in0.0 mm
02:57 PM 81.5°F27.5°C 63.2°F17.3°C 54% 3.0 mph SW4.8 kmh SW -- 30.09 in1019.0 mb 0.00 in0.0 mm 0.00 in0.0 mm 0.00 in0.0 mm
02:52 PM 81.5°F27.5°C 63.2°F17.3°C 54% 3.0 mph SW4.8 kmh SW -- 30.09 in1019.0 mb 0.00 in0.0 mm 0.00 in0.0 mm 0.00 in0.0 mm
02:47 PM 81.7°F27.6°C 63.9°F17.7°C 55% 1.0 mph W1.6 kmh W -- 30.10 in1019.3 mb 0.00 in0.0 mm 0.00 in0.0 mm 0.00 in0.0 mm
02:42 PM 81.7°F27.6°C 63.9°F17.7°C 55% 1.0 mph W1.6 kmh W -- 30.10 in1019.3 mb 0.00 in0.0 mm 0.00 in0.0 mm 0.00 in0.0 mm
02:37 PM 81.9°F27.7°C 64.1°F17.8°C 55% 4.0 mph NW6.4 kmh NW -- 30.10 in1019.3 mb 0.00 in0.0 mm 0.00 in0.0 mm 0.00 in0.0 mm
02:32 PM 81.9°F27.7°C 64.1°F17.8°C 55% 4.0 mph NW6.4 kmh NW -- 30.10 in1019.3 mb 0.00 in0.0 mm 0.00 in0.0 mm 0.00 in0.0 mm
02:27 PM 82.2°F27.9°C 64.9°F18.3°C 56% 4.0 mph W6.4 kmh W -- 30.10 in1019.3 mb 0.00 in0.0 mm 0.00 in0.0 mm 0.00 in0.0 mm
02:22 PM 82.2°F27.9°C 64.9°F18.3°C 56% 4.0 mph W6.4 kmh W -- 30.10 in1019.3 mb 0.00 in0.0 mm 0.00 in0.0 mm 0.00 in0.0 mm
02:17 PM 82.4°F28.0°C 64.6°F18.1°C 55% 4.0 mph W6.4 kmh W -- 30.09 in1019.0 mb 0.00 in0.0 mm 0.00 in0.0 mm 0.00 in0.0 mm
02:12 PM 82.4°F28.0°C 64.6°F18.1°C 55% 4.0 mph W6.4 kmh W -- 30.09 in1019.0 mb 0.00 in0.0 mm 0.00 in0.0 mm 0.00 in0.0 mm
02:07 PM 82.4°F28.0°C 65.1°F18.4°C 56% 3.0 mph W4.8 kmh W -- 30.10 in1019.3 mb 0.00 in0.0 mm 0.00 in0.0 mm 0.00 in0.0 mm
02:02 PM 82.4°F28.0°C 65.1°F18.4°C 56% 3.0 mph W4.8 kmh W -- 30.10 in1019.3 mb 0.00 in0.0 mm 0.00 in0.0 mm 0.00 in0.0 mm
01:57 PM 82.2°F27.9°C 64.9°F18.3°C 56% 3.0 mph W4.8 kmh W -- 30.11 in1019.6 mb 0.00 in0.0 mm 0.00 in0.0 mm 0.00 in0.0 mm
01:52 PM 82.2°F27.9°C 64.9°F18.3°C 56% 3.0 mph W4.8 kmh W -- 30.11 in1019.6 mb 0.00 in0.0 mm 0.00 in0.0 mm 0.00 in0.0 mm
01:47 PM 81.9°F27.7°C 65.1°F18.4°C 57% 4.0 mph W6.4 kmh W -- 30.11 in1019.6 mb 0.00 in0.0 mm 0.00 in0.0 mm 0.00 in0.0 mm
01:42 PM 81.9°F27.7°C 65.1°F18.4°C 57% 4.0 mph W6.4 kmh W -- 30.11 in1019.6 mb 0.00 in0.0 mm 0.00 in0.0 mm 0.00 in0.0 mm
01:37 PM 81.3°F27.4°C 64.6°F18.1°C 57% 7.0 mph W11.3 kmh W -- 30.11 in1019.6 mb 0.00 in0.0 mm 0.00 in0.0 mm 0.00 in0.0 mm
01:32 PM 81.3°F27.4°C 64.6°F18.1°C 57% 7.0 mph W11.3 kmh W -- 30.11 in1019.6 mb 0.00 in0.0 mm 0.00 in0.0 mm 0.00 in0.0 mm
01:27 PM 80.6°F27.0°C 63.9°F17.7°C 57% 5.0 mph W8.0 kmh W -- 30.11 in1019.6 mb 0.00 in0.0 mm 0.00 in0.0 mm 0.00 in0.0 mm
01:22 PM 80.6°F27.0°C 63.9°F17.7°C 57% 5.0 mph W8.0 kmh W -- 30.11 in1019.6 mb 0.00 in0.0 mm 0.00 in0.0 mm 0.00 in0.0 mm
01:17 PM 80.4°F26.9°C 63.8°F17.7°C 57% 5.0 mph W8.0 kmh W -- 30.11 in1019.6 mb 0.00 in0.0 mm 0.00 in0.0 mm 0.00 in0.0 mm
01:12 PM 80.4°F26.9°C 63.8°F17.7°C 57% 5.0 mph W8.0 kmh W -- 30.11 in1019.6 mb 0.00 in0.0 mm 0.00 in0.0 mm 0.00 in0.0 mm
01:07 PM 80.2°F26.8°C 64.6°F18.1°C 59% 5.0 mph W8.0 kmh W -- 30.10 in1019.3 mb 0.00 in0.0 mm 0.00 in0.0 mm 0.00 in0.0 mm
01:02 PM 80.2°F26.8°C 64.6°F18.1°C 59% 5.0 mph W8.0 kmh W -- 30.10 in1019.3 mb 0.00 in0.0 mm 0.00 in0.0 mm 0.00 in0.0 mm
12:57 PM 79.9°F26.6°C 64.7°F18.2°C 60% 5.0 mph W8.0 kmh W -- 30.11 in1019.6 mb 0.00 in0.0 mm 0.00 in0.0 mm 0.00 in0.0 mm
12:52 PM 79.9°F26.6°C 64.7°F18.2°C 60% 5.0 mph W8.0 kmh W -- 30.11 in1019.6 mb 0.00 in0.0 mm 0.00 in0.0 mm 0.00 in0.0 mm
12:47 PM 79.5°F26.4°C 64.4°F18.0°C 60% 4.0 mph W6.4 kmh W -- 30.11 in1019.6 mb 0.00 in0.0 mm 0.00 in0.0 mm 0.00 in0.0 mm
12:42 PM 79.5°F26.4°C 64.4°F18.0°C 60% 4.0 mph W6.4 kmh W -- 30.11 in1019.6 mb 0.00 in0.0 mm 0.00 in0.0 mm 0.00 in0.0 mm
12:37 PM 79.2°F26.2°C 64.5°F18.1°C 61% 4.0 mph W6.4 kmh W -- 30.11 in1019.6 mb 0.00 in0.0 mm 0.00 in0.0 mm 0.00 in0.0 mm
12:32 PM 79.2°F26.2°C 64.5°F18.1°C 61% 4.0 mph W6.4 kmh W -- 30.11 in1019.6 mb 0.00 in0.0 mm 0.00 in0.0 mm 0.00 in0.0 mm
12:27 PM 78.4°F25.8°C 64.8°F18.2°C 63% 6.0 mph W9.7 kmh W -- 30.10 in1019.3 mb 0.00 in0.0 mm 0.00 in0.0 mm 0.00 in0.0 mm
12:22 PM 78.4°F25.8°C 64.8°F18.2°C 63% 6.0 mph W9.7 kmh W -- 30.10 in1019.3 mb 0.00 in0.0 mm 0.00 in0.0 mm 0.00 in0.0 mm
12:17 PM 77.7°F25.4°C 64.5°F18.1°C 64% 4.0 mph W6.4 kmh W -- 30.10 in1019.3 mb 0.00 in0.0 mm 0.00 in0.0 mm 0.00 in0.0 mm
12:12 PM 77.7°F25.4°C 64.5°F18.1°C 64% 4.0 mph W6.4 kmh W -- 30.10 in1019.3 mb 0.00 in0.0 mm 0.00 in0.0 mm 0.00 in0.0 mm
12:07 PM 77.0°F25.0°C 64.3°F17.9°C 65% 5.0 mph W8.0 kmh W -- 30.11 in1019.6 mb 0.00 in0.0 mm 0.00 in0.0 mm 0.00 in0.0 mm
12:02 PM 77.0°F25.0°C 64.3°F17.9°C 65% 5.0 mph W8.0 kmh W -- 30.11 in1019.6 mb 0.00 in0.0 mm 0.00 in0.0 mm 0.00 in0.0 mm
11:57 AM 75.7°F24.3°C 64.0°F17.8°C 67% 5.0 mph W8.0 kmh W -- 30.11 in1019.6 mb 0.00 in0.0 mm 0.00 in0.0 mm 0.00 in0.0 mm
11:52 AM 75.7°F24.3°C 64.0°F17.8°C 67% 5.0 mph W8.0 kmh W -- 30.11 in1019.6 mb 0.00 in0.0 mm 0.00 in0.0 mm 0.00 in0.0 mm
11:47 AM 75.7°F24.3°C 64.0°F17.8°C 67% 5.0 mph W8.0 kmh W -- 30.11 in1019.6 mb 0.00 in0.0 mm 0.00 in0.0 mm 0.00 in0.0 mm
11:42 AM 75.7°F24.3°C 64.0°F17.8°C 67% 5.0 mph W8.0 kmh W -- 30.11 in1019.6 mb 0.00 in0.0 mm 0.00 in0.0 mm 0.00 in0.0 mm
11:37 AM 75.4°F24.1°C 63.6°F17.6°C 67% 4.0 mph W6.4 kmh W -- 30.12 in1020.0 mb 0.00 in0.0 mm 0.00 in0.0 mm 0.00 in0.0 mm
11:32 AM 75.4°F24.1°C 63.6°F17.6°C 67% 4.0 mph W6.4 kmh W -- 30.12 in1020.0 mb 0.00 in0.0 mm 0.00 in0.0 mm 0.00 in0.0 mm
11:27 AM 74.8°F23.8°C 63.6°F17.6°C 68% 3.0 mph W4.8 kmh W -- 30.11 in1019.6 mb 0.00 in0.0 mm 0.00 in0.0 mm 0.00 in0.0 mm
11:22 AM 74.8°F23.8°C 63.6°F17.6°C 68% 3.0 mph W4.8 kmh W -- 30.11 in1019.6 mb 0.00 in0.0 mm 0.00 in0.0 mm 0.00 in0.0 mm
11:17 AM 74.3°F23.5°C 63.0°F17.2°C 68% 4.0 mph W6.4 kmh W -- 30.11 in1019.6 mb 0.00 in0.0 mm 0.00 in0.0 mm 0.00 in0.0 mm
11:12 AM 74.3°F23.5°C 63.0°F17.2°C 68% 4.0 mph W6.4 kmh W -- 30.11 in1019.6 mb 0.00 in0.0 mm 0.00 in0.0 mm 0.00 in0.0 mm
11:07 AM 73.9°F23.3°C 63.1°F17.3°C 69% 4.0 mph W6.4 kmh W -- 30.11 in1019.6 mb 0.00 in0.0 mm 0.00 in0.0 mm 0.00 in0.0 mm
11:02 AM 73.9°F23.3°C 63.1°F17.3°C 69% 4.0 mph W6.4 kmh W -- 30.11 in1019.6 mb 0.00 in0.0 mm 0.00 in0.0 mm 0.00 in0.0 mm
10:57 AM 72.9°F22.7°C 62.9°F17.2°C 71% 3.0 mph W4.8 kmh W -- 30.11 in1019.6 mb 0.00 in0.0 mm 0.00 in0.0 mm 0.00 in0.0 mm
10:52 AM 72.9°F22.7°C 62.9°F17.2°C 71% 3.0 mph W4.8 kmh W -- 30.11 in1019.6 mb 0.00 in0.0 mm 0.00 in0.0 mm 0.00 in0.0 mm
10:47 AM 71.6°F22.0°C 62.1°F16.7°C 72% 3.0 mph W4.8 kmh W -- 30.11 in1019.6 mb 0.00 in0.0 mm 0.00 in0.0 mm 0.00 in0.0 mm
10:42 AM 71.6°F22.0°C 62.1°F16.7°C 72% 3.0 mph W4.8 kmh W -- 30.11 in1019.6 mb 0.00 in0.0 mm 0.00 in0.0 mm 0.00 in0.0 mm
10:37 AM 70.7°F21.5°C 61.2°F16.2°C 72% 1.0 mph NW1.6 kmh NW -- 30.12 in1020.0 mb 0.00 in0.0 mm 0.00 in0.0 mm 0.00 in0.0 mm
10:32 AM 70.7°F21.5°C 61.2°F16.2°C 72% 1.0 mph NW1.6 kmh NW -- 30.12 in1020.0 mb 0.00 in0.0 mm 0.00 in0.0 mm 0.00 in0.0 mm
10:27 AM 70.7°F21.5°C 61.2°F16.2°C 72% 1.0 mph NW1.6 kmh NW -- 30.12 in1020.0 mb 0.00 in0.0 mm 0.00 in0.0 mm 0.00 in0.0 mm
10:22 AM 70.3°F21.3°C 60.9°F16.1°C 72% 2.0 mph W3.2 kmh W -- 30.12 in1020.0 mb 0.00 in0.0 mm 0.00 in0.0 mm 0.00 in0.0 mm
10:17 AM 70.3°F21.3°C 60.9°F16.1°C 72% 2.0 mph W3.2 kmh W -- 30.12 in1020.0 mb 0.00 in0.0 mm 0.00 in0.0 mm 0.00 in0.0 mm
10:12 AM 70.5°F21.4°C 60.7°F15.9°C 71% 2.0 mph W3.2 kmh W -- 30.11 in1019.6 mb 0.00 in0.0 mm 0.00 in0.0 mm 0.00 in0.0 mm
10:07 AM 70.5°F21.4°C 60.7°F15.9°C 71% 2.0 mph W3.2 kmh W -- 30.11 in1019.6 mb 0.00 in0.0 mm 0.00 in0.0 mm 0.00 in0.0 mm
10:02 AM 70.7°F21.5°C 60.8°F16.0°C 71% 3.0 mph SSW4.8 kmh SSW -- 30.11 in1019.6 mb 0.00 in0.0 mm 0.00 in0.0 mm 0.00 in0.0 mm
09:57 AM 70.7°F21.5°C 60.8°F16.0°C 71% 3.0 mph SSW4.8 kmh SSW -- 30.11 in1019.6 mb 0.00 in0.0 mm 0.00 in0.0 mm 0.00 in0.0 mm
09:52 AM 70.7°F21.5°C 60.8°F16.0°C 71% 2.0 mph SW3.2 kmh SW -- 30.10 in1019.3 mb 0.00 in0.0 mm 0.00 in0.0 mm 0.00 in0.0 mm
09:47 AM 70.7°F21.5°C 60.8°F16.0°C 71% 2.0 mph SW3.2 kmh SW -- 30.10 in1019.3 mb 0.00 in0.0 mm 0.00 in0.0 mm 0.00 in0.0 mm
09:42 AM 70.7°F21.5°C 61.2°F16.2°C 72% 1.0 mph W1.6 kmh W -- 30.10 in1019.3 mb 0.00 in0.0 mm 0.00 in0.0 mm 0.00 in0.0 mm
09:37 AM 70.7°F21.5°C 61.2°F16.2°C 72% 1.0 mph W1.6 kmh W -- 30.10 in1019.3 mb 0.00 in0.0 mm 0.00 in0.0 mm 0.00 in0.0 mm
09:32 AM 70.5°F21.4°C 61.0°F16.1°C 72% 2.0 mph W3.2 kmh W -- 30.10 in1019.3 mb 0.00 in0.0 mm 0.00 in0.0 mm 0.00 in0.0 mm
09:27 AM 70.5°F21.4°C 61.0°F16.1°C 72% 2.0 mph W3.2 kmh W -- 30.10 in1019.3 mb 0.00 in0.0 mm 0.00 in0.0 mm 0.00 in0.0 mm
09:22 AM 70.3°F21.3°C 61.3°F16.3°C 73% 2.0 mph W3.2 kmh W -- 30.09 in1019.0 mb 0.00 in0.0 mm 0.00 in0.0 mm 0.00 in0.0 mm
09:17 AM 70.3°F21.3°C 61.3°F16.3°C 73% 2.0 mph W3.2 kmh W -- 30.09 in1019.0 mb 0.00 in0.0 mm 0.00 in0.0 mm 0.00 in0.0 mm
09:12 AM 69.8°F21.0°C 61.1°F16.2°C 74% 1.0 mph SW1.6 kmh SW -- 30.09 in1019.0 mb 0.00 in0.0 mm 0.00 in0.0 mm 0.00 in0.0 mm
09:07 AM 69.8°F21.0°C 61.1°F16.2°C 74% 1.0 mph SW1.6 kmh SW -- 30.09 in1019.0 mb 0.00 in0.0 mm 0.00 in0.0 mm 0.00 in0.0 mm
09:02 AM 69.1°F20.6°C 61.2°F16.2°C 76% 1.0 mph W1.6 kmh W -- 30.08 in1018.6 mb 0.00 in0.0 mm 0.00 in0.0 mm 0.00 in0.0 mm
08:57 AM 69.1°F20.6°C 61.2°F16.2°C 76% 1.0 mph W1.6 kmh W -- 30.08 in1018.6 mb 0.00 in0.0 mm 0.00 in0.0 mm 0.00 in0.0 mm
08:52 AM 68.0°F20.0°C 60.5°F15.8°C 77% 2.0 mph W3.2 kmh W -- 30.08 in1018.6 mb 0.00 in0.0 mm 0.00 in0.0 mm 0.00 in0.0 mm
08:47 AM 68.0°F20.0°C 60.5°F15.8°C 77% 2.0 mph W3.2 kmh W -- 30.08 in1018.6 mb 0.00 in0.0 mm 0.00 in0.0 mm 0.00 in0.0 mm
08:42 AM 67.1°F19.5°C 60.0°F15.6°C 78% 1.0 mph W1.6 kmh W -- 30.08 in1018.6 mb 0.00 in0.0 mm 0.00 in0.0 mm 0.00 in0.0 mm
08:37 AM 67.1°F19.5°C 60.0°F15.6°C 78% 1.0 mph W1.6 kmh W -- 30.08 in1018.6 mb 0.00 in0.0 mm 0.00 in0.0 mm 0.00 in0.0 mm
08:32 AM 66.4°F19.1°C 59.3°F15.2°C 78% 1.0 mph W1.6 kmh W -- 30.09 in1019.0 mb 0.00 in0.0 mm 0.00 in0.0 mm 0.00 in0.0 mm
08:27 AM 66.4°F19.1°C 59.3°F15.2°C 78% 1.0 mph W1.6 kmh W -- 30.09 in1019.0 mb 0.00 in0.0 mm 0.00 in0.0 mm 0.00 in0.0 mm
08:22 AM 65.5°F18.6°C 58.8°F14.9°C 79% 1.0 mph N1.6 kmh N -- 30.08 in1018.6 mb 0.00 in0.0 mm 0.00 in0.0 mm 0.00 in0.0 mm
08:17 AM 65.5°F18.6°C 58.8°F14.9°C 79% 1.0 mph N1.6 kmh N -- 30.08 in1018.6 mb 0.00 in0.0 mm 0.00 in0.0 mm 0.00 in0.0 mm
08:12 AM 64.9°F18.3°C 57.9°F14.4°C 78% 1.0 mph N1.6 kmh N -- 30.07 in1018.3 mb 0.00 in0.0 mm 0.00 in0.0 mm 0.00 in0.0 mm
08:07 AM 64.9°F18.3°C 57.9°F14.4°C 78% 1.0 mph N1.6 kmh N -- 30.07 in1018.3 mb 0.00 in0.0 mm 0.00 in0.0 mm 0.00 in0.0 mm
08:02 AM 64.6°F18.1°C 57.6°F14.2°C 78% 1.0 mph SW1.6 kmh SW -- 30.07 in1018.3 mb 0.00 in0.0 mm 0.00 in0.0 mm 0.00 in0.0 mm
07:57 AM 64.6°F18.1°C 57.6°F14.2°C 78% 1.0 mph SW1.6 kmh SW -- 30.07 in1018.3 mb 0.00 in0.0 mm 0.00 in0.0 mm 0.00 in0.0 mm
07:52 AM 64.4°F18.0°C 57.4°F14.1°C 78% Calm Calm -- 30.07 in1018.3 mb 0.00 in0.0 mm 0.00 in0.0 mm 0.00 in0.0 mm
07:47 AM 64.4°F18.0°C 57.4°F14.1°C 78% Calm Calm -- 30.07 in1018.3 mb 0.00 in0.0 mm 0.00 in0.0 mm 0.00 in0.0 mm
07:42 AM 64.2°F17.9°C 57.2°F14.0°C 78% 1.0 mph N1.6 kmh N -- 30.07 in1018.3 mb 0.00 in0.0 mm 0.00 in0.0 mm 0.00 in0.0 mm
07:37 AM 64.2°F17.9°C 57.2°F14.0°C 78% 1.0 mph N1.6 kmh N -- 30.07 in1018.3 mb 0.00 in0.0 mm 0.00 in0.0 mm 0.00 in0.0 mm
07:32 AM 63.9°F17.7°C 56.9°F13.8°C 78% 1.0 mph N1.6 kmh N -- 30.07 in1018.3 mb 0.00 in0.0 mm 0.00 in0.0 mm 0.00 in0.0 mm
07:27 AM 63.9°F17.7°C 56.9°F13.8°C 78% 1.0 mph N1.6 kmh N -- 30.07 in1018.3 mb 0.00 in0.0 mm 0.00 in0.0 mm 0.00 in0.0 mm
07:22 AM 63.9°F17.7°C 56.9°F13.8°C 78% Calm Calm -- 30.06 in1017.9 mb 0.00 in0.0 mm 0.00 in0.0 mm 0.00 in0.0 mm
07:17 AM 63.9°F17.7°C 56.9°F13.8°C 78% Calm Calm -- 30.06 in1017.9 mb 0.00 in0.0 mm 0.00 in0.0 mm 0.00 in0.0 mm
07:12 AM 63.9°F17.7°C 56.9°F13.8°C 78% 1.0 mph N1.6 kmh N -- 30.06 in1017.9 mb 0.00 in0.0 mm 0.00 in0.0 mm 0.00 in0.0 mm
07:07 AM 63.9°F17.7°C 56.9°F13.8°C 78% 1.0 mph N1.6 kmh N -- 30.06 in1017.9 mb 0.00 in0.0 mm 0.00 in0.0 mm 0.00 in0.0 mm
07:02 AM 63.9°F17.7°C 56.5°F13.6°C 77% Calm Calm -- 30.05 in1017.6 mb 0.00 in0.0 mm 0.00 in0.0 mm 0.00 in0.0 mm
06:57 AM 63.9°F17.7°C 56.5°F13.6°C 77% Calm Calm -- 30.05 in1017.6 mb 0.00 in0.0 mm 0.00 in0.0 mm 0.00 in0.0 mm
06:52 AM 64.0°F17.8°C 56.7°F13.7°C 77% 1.0 mph W1.6 kmh W -- 30.05 in1017.6 mb 0.00 in0.0 mm 0.00 in0.0 mm 0.00 in0.0 mm
06:47 AM 64.0°F17.8°C 56.7°F13.7°C 77% 1.0 mph W1.6 kmh W -- 30.05 in1017.6 mb 0.00 in0.0 mm 0.00 in0.0 mm 0.00 in0.0 mm
06:42 AM 64.2°F17.9°C 56.5°F13.6°C 76% 1.0 mph SW1.6 kmh SW -- 30.04 in1017.3 mb 0.00 in0.0 mm 0.00 in0.0 mm 0.00 in0.0 mm
06:37 AM 64.2°F17.9°C 56.5°F13.6°C 76% 1.0 mph SW1.6 kmh SW -- 30.04 in1017.3 mb 0.00 in0.0 mm 0.00 in0.0 mm 0.00 in0.0 mm
06:32 AM 64.4°F18.0°C 56.7°F13.7°C 76% 1.0 mph SW1.6 kmh SW -- 30.04 in1017.3 mb 0.00 in0.0 mm 0.00 in0.0 mm 0.00 in0.0 mm
06:27 AM 64.4°F18.0°C 56.7°F13.7°C 76% 1.0 mph SW1.6 kmh SW -- 30.04 in1017.3 mb 0.00 in0.0 mm 0.00 in0.0 mm 0.00 in0.0 mm
06:22 AM 64.6°F18.1°C 56.8°F13.8°C 76% 1.0 mph SW1.6 kmh SW -- 30.04 in1017.3 mb 0.00 in0.0 mm 0.00 in0.0 mm 0.00 in0.0 mm
06:17 AM 64.6°F18.1°C 56.8°F13.8°C 76% 1.0 mph SW1.6 kmh SW -- 30.04 in1017.3 mb 0.00 in0.0 mm 0.00 in0.0 mm 0.00 in0.0 mm
06:12 AM 64.6°F18.1°C 56.8°F13.8°C 76% 1.0 mph SW1.6 kmh SW -- 30.04 in1017.3 mb 0.00 in0.0 mm 0.00 in0.0 mm 0.00 in0.0 mm
06:07 AM 64.6°F18.1°C 56.8°F13.8°C 76% 1.0 mph SW1.6 kmh SW -- 30.04 in1017.3 mb 0.00 in0.0 mm 0.00 in0.0 mm 0.00 in0.0 mm
06:02 AM 64.8°F18.2°C 56.6°F13.7°C 75% 1.0 mph N1.6 kmh N -- 30.04 in1017.3 mb 0.00 in0.0 mm 0.00 in0.0 mm 0.00 in0.0 mm
05:57 AM 64.8°F18.2°C 56.6°F13.7°C 75% 1.0 mph N1.6 kmh N -- 30.04 in1017.3 mb 0.00 in0.0 mm 0.00 in0.0 mm 0.00 in0.0 mm
05:52 AM 64.8°F18.2°C 56.6°F13.7°C 75% 1.0 mph WSW1.6 kmh WSW -- 30.04 in1017.3 mb 0.00 in0.0 mm 0.00 in0.0 mm 0.00 in0.0 mm
05:47 AM 64.8°F18.2°C 56.6°F13.7°C 75% 1.0 mph WSW1.6 kmh WSW -- 30.04 in1017.3 mb 0.00 in0.0 mm 0.00 in0.0 mm 0.00 in0.0 mm
05:42 AM 64.6°F18.1°C 56.5°F13.6°C 75% 1.0 mph N1.6 kmh N -- 30.03 in1016.9 mb 0.00 in0.0 mm 0.00 in0.0 mm 0.00 in0.0 mm
05:37 AM 64.6°F18.1°C 56.5°F13.6°C 75% 1.0 mph N1.6 kmh N -- 30.03 in1016.9 mb 0.00 in0.0 mm 0.00 in0.0 mm 0.00 in0.0 mm
05:32 AM 64.6°F18.1°C 56.1°F13.4°C 74% 1.0 mph N1.6 kmh N -- 30.02 in1016.6 mb 0.00 in0.0 mm 0.00 in0.0 mm 0.00 in0.0 mm
05:27 AM 64.6°F18.1°C 56.1°F13.4°C 74% 1.0 mph N1.6 kmh N -- 30.02 in1016.6 mb 0.00 in0.0 mm 0.00 in0.0 mm 0.00 in0.0 mm
05:22 AM 64.8°F18.2°C 56.3°F13.5°C 74% 1.0 mph SSW1.6 kmh SSW -- 30.02 in1016.6 mb 0.00 in0.0 mm 0.00 in0.0 mm 0.00 in0.0 mm
05:17 AM 64.8°F18.2°C 56.3°F13.5°C 74% 1.0 mph SSW1.6 kmh SSW -- 30.02 in1016.6 mb 0.00 in0.0 mm 0.00 in0.0 mm 0.00 in0.0 mm
05:12 AM 64.9°F18.3°C 56.1°F13.4°C 73% 1.0 mph SSW1.6 kmh SSW -- 30.02 in1016.6 mb 0.00 in0.0 mm 0.00 in0.0 mm 0.00 in0.0 mm
05:07 AM 64.9°F18.3°C 56.1°F13.4°C 73% 1.0 mph SSW1.6 kmh SSW -- 30.02 in1016.6 mb 0.00 in0.0 mm 0.00 in0.0 mm 0.00 in0.0 mm
05:02 AM 64.9°F18.3°C 56.1°F13.4°C 73% 1.0 mph S1.6 kmh S -- 30.02 in1016.6 mb 0.00 in0.0 mm 0.00 in0.0 mm 0.00 in0.0 mm
04:57 AM 64.9°F18.3°C 56.1°F13.4°C 73% 1.0 mph S1.6 kmh S -- 30.02 in1016.6 mb 0.00 in0.0 mm 0.00 in0.0 mm 0.00 in0.0 mm
04:52 AM 65.1°F18.4°C 56.2°F13.4°C 73% 1.0 mph SSE1.6 kmh SSE -- 30.02 in1016.6 mb 0.00 in0.0 mm 0.00 in0.0 mm 0.00 in0.0 mm
04:47 AM 65.1°F18.4°C 56.2°F13.4°C 73% 1.0 mph SSE1.6 kmh SSE -- 30.02 in1016.6 mb 0.00 in0.0 mm 0.00 in0.0 mm 0.00 in0.0 mm
04:42 AM 65.3°F18.5°C 56.4°F13.6°C 73% 1.0 mph N1.6 kmh N -- 30.02 in1016.6 mb 0.00 in0.0 mm 0.00 in0.0 mm 0.00 in0.0 mm
04:37 AM 65.3°F18.5°C 56.4°F13.6°C 73% 1.0 mph N1.6 kmh N -- 30.02 in1016.6 mb 0.00 in0.0 mm 0.00 in0.0 mm 0.00 in0.0 mm
04:32 AM 65.3°F18.5°C 56.4°F13.6°C 73% 1.0 mph N1.6 kmh N -- 30.02 in1016.6 mb 0.00 in0.0 mm 0.00 in0.0 mm 0.00 in0.0 mm
04:27 AM 65.3°F18.5°C 56.4°F13.6°C 73% 1.0 mph N1.6 kmh N -- 30.02 in1016.6 mb 0.00 in0.0 mm 0.00 in0.0 mm 0.00 in0.0 mm
04:22 AM 65.5°F18.6°C 56.6°F13.7°C 73% Calm Calm -- 30.01 in1016.3 mb 0.00 in0.0 mm 0.00 in0.0 mm 0.00 in0.0 mm
04:17 AM 65.5°F18.6°C 56.6°F13.7°C 73% Calm Calm -- 30.01 in1016.3 mb 0.00 in0.0 mm 0.00 in0.0 mm 0.00 in0.0 mm
04:12 AM 65.5°F18.6°C 56.2°F13.4°C 72% 1.0 mph S1.6 kmh S -- 30.02 in1016.6 mb 0.00 in0.0 mm 0.00 in0.0 mm 0.00 in0.0 mm
04:07 AM 65.5°F18.6°C 56.2°F13.4°C 72% 1.0 mph S1.6 kmh S -- 30.02 in1016.6 mb 0.00 in0.0 mm 0.00 in0.0 mm 0.00 in0.0 mm
04:02 AM 65.5°F18.6°C 56.2°F13.4°C 72% 1.0 mph N1.6 kmh N -- 30.01 in1016.3 mb 0.00 in0.0 mm 0.00 in0.0 mm 0.00 in0.0 mm
03:57 AM 65.5°F18.6°C 56.2°F13.4°C 72% 1.0 mph N1.6 kmh N -- 30.01 in1016.3 mb 0.00 in0.0 mm 0.00 in0.0 mm 0.00 in0.0 mm
03:52 AM 65.5°F18.6°C 56.2°F13.4°C 72% Calm Calm -- 30.00 in1015.9 mb 0.00 in0.0 mm 0.00 in0.0 mm 0.00 in0.0 mm
03:47 AM 65.5°F18.6°C 56.2°F13.4°C 72% Calm Calm -- 30.00 in1015.9 mb 0.00 in0.0 mm 0.00 in0.0 mm 0.00 in0.0 mm
03:42 AM 65.5°F18.6°C 56.2°F13.4°C 72% Calm Calm -- 30.00 in1015.9 mb 0.00 in0.0 mm 0.00 in0.0 mm 0.00 in0.0 mm
03:37 AM 65.7°F18.7°C 56.0°F13.3°C 71% 1.0 mph N1.6 kmh N -- 30.00 in1015.9 mb 0.00 in0.0 mm 0.00 in0.0 mm 0.00 in0.0 mm
03:32 AM 65.7°F18.7°C 56.0°F13.3°C 71% 1.0 mph N1.6 kmh N -- 30.00 in1015.9 mb 0.00 in0.0 mm 0.00 in0.0 mm 0.00 in0.0 mm
03:27 AM 65.7°F18.7°C 56.0°F13.3°C 71% Calm Calm -- 30.00 in1015.9 mb 0.00 in0.0 mm 0.00 in0.0 mm 0.00 in0.0 mm
03:22 AM 65.7°F18.7°C 56.0°F13.3°C 71% Calm Calm -- 30.00 in1015.9 mb 0.00 in0.0 mm 0.00 in0.0 mm 0.00 in0.0 mm
03:17 AM 65.8°F18.8°C 55.8°F13.2°C 70% 1.0 mph N1.6 kmh N -- 30.01 in1016.3 mb 0.00 in0.0 mm 0.00 in0.0 mm 0.00 in0.0 mm
03:12 AM 65.8°F18.8°C 55.8°F13.2°C 70% 1.0 mph N1.6 kmh N -- 30.01 in1016.3 mb 0.00 in0.0 mm 0.00 in0.0 mm 0.00 in0.0 mm
03:07 AM 66.0°F18.9°C 55.9°F13.3°C 70% 1.0 mph N1.6 kmh N -- 30.01 in1016.3 mb 0.00 in0.0 mm 0.00 in0.0 mm 0.00 in0.0 mm
03:02 AM 66.0°F18.9°C 55.9°F13.3°C 70% 1.0 mph N1.6 kmh N -- 30.01 in1016.3 mb 0.00 in0.0 mm 0.00 in0.0 mm 0.00 in0.0 mm
02:57 AM 66.2°F19.0°C 56.1°F13.4°C 70% 1.0 mph N1.6 kmh N -- 30.00 in1015.9 mb 0.00 in0.0 mm 0.00 in0.0 mm 0.00 in0.0 mm
02:52 AM 66.2°F19.0°C 56.1°F13.4°C 70% 1.0 mph N1.6 kmh N -- 30.00 in1015.9 mb 0.00 in0.0 mm 0.00 in0.0 mm 0.00 in0.0 mm
02:47 AM 66.4°F19.1°C 55.9°F13.3°C 69% 1.0 mph N1.6 kmh N -- 30.00 in1015.9 mb 0.00 in0.0 mm 0.00 in0.0 mm 0.00 in0.0 mm
02:42 AM 66.4°F19.1°C 55.9°F13.3°C 69% 1.0 mph N1.6 kmh N -- 30.00 in1015.9 mb 0.00 in0.0 mm 0.00 in0.0 mm 0.00 in0.0 mm
02:37 AM 66.4°F19.1°C 55.9°F13.3°C 69% Calm Calm -- 30.01 in1016.3 mb 0.00 in0.0 mm 0.00 in0.0 mm 0.00 in0.0 mm
02:32 AM 66.4°F19.1°C 55.9°F13.3°C 69% Calm Calm -- 30.01 in1016.3 mb 0.00 in0.0 mm 0.00 in0.0 mm 0.00 in0.0 mm
02:27 AM 66.2°F19.0°C 55.7°F13.2°C 69% 1.0 mph SW1.6 kmh SW -- 30.00 in1015.9 mb 0.00 in0.0 mm 0.00 in0.0 mm 0.00 in0.0 mm
02:22 AM 66.2°F19.0°C 55.7°F13.2°C 69% 1.0 mph SW1.6 kmh SW -- 30.00 in1015.9 mb 0.00 in0.0 mm 0.00 in0.0 mm 0.00 in0.0 mm
02:17 AM 66.2°F19.0°C 55.3°F12.9°C 68% 1.0 mph SW1.6 kmh SW -- 30.00 in1015.9 mb 0.00 in0.0 mm 0.00 in0.0 mm 0.00 in0.0 mm
02:12 AM 66.2°F19.0°C 55.3°F12.9°C 68% 1.0 mph SW1.6 kmh SW -- 30.00 in1015.9 mb 0.00 in0.0 mm 0.00 in0.0 mm 0.00 in0.0 mm
02:07 AM 66.2°F19.0°C 55.3°F12.9°C 68% 1.0 mph N1.6 kmh N -- 30.00 in1015.9 mb 0.00 in0.0 mm 0.00 in0.0 mm 0.00 in0.0 mm
02:02 AM 66.2°F19.0°C 55.3°F12.9°C 68% 1.0 mph N1.6 kmh N -- 30.00 in1015.9 mb 0.00 in0.0 mm 0.00 in0.0 mm 0.00 in0.0 mm
01:57 AM 66.2°F19.0°C 55.3°F12.9°C 68% 1.0 mph N1.6 kmh N -- 30.00 in1015.9 mb 0.00 in0.0 mm 0.00 in0.0 mm 0.00 in0.0 mm
01:52 AM 66.2°F19.0°C 55.3°F12.9°C 68% 1.0 mph N1.6 kmh N -- 30.00 in1015.9 mb 0.00 in0.0 mm 0.00 in0.0 mm 0.00 in0.0 mm
01:47 AM 66.2°F19.0°C 55.3°F12.9°C 68% 1.0 mph SW1.6 kmh SW -- 30.00 in1015.9 mb 0.00 in0.0 mm 0.00 in0.0 mm 0.00 in0.0 mm
01:42 AM 66.2°F19.0°C 55.3°F12.9°C 68% 1.0 mph SW1.6 kmh SW -- 30.00 in1015.9 mb 0.00 in0.0 mm 0.00 in0.0 mm 0.00 in0.0 mm
01:37 AM 66.4°F19.1°C 55.5°F13.1°C 68% Calm Calm -- 30.00 in1015.9 mb 0.00 in0.0 mm 0.00 in0.0 mm 0.00 in0.0 mm
01:32 AM 66.4°F19.1°C 55.5°F13.1°C 68% Calm Calm -- 30.00 in1015.9 mb 0.00 in0.0 mm 0.00 in0.0 mm 0.00 in0.0 mm
01:27 AM 66.4°F19.1°C 55.5°F13.1°C 68% 1.0 mph N1.6 kmh N -- 30.00 in1015.9 mb 0.00 in0.0 mm 0.00 in0.0 mm 0.00 in0.0 mm
01:22 AM 66.4°F19.1°C 55.5°F13.1°C 68% 1.0 mph N1.6 kmh N -- 30.00 in1015.9 mb 0.00 in0.0 mm 0.00 in0.0 mm 0.00 in0.0 mm
01:17 AM 66.6°F19.2°C 55.3°F12.9°C 67% 1.0 mph N1.6 kmh N -- 29.99 in1015.6 mb 0.00 in0.0 mm 0.00 in0.0 mm 0.00 in0.0 mm
01:12 AM 66.6°F19.2°C 55.3°F12.9°C 67% 1.0 mph N1.6 kmh N -- 29.99 in1015.6 mb 0.00 in0.0 mm 0.00 in0.0 mm 0.00 in0.0 mm
01:07 AM 66.6°F19.2°C 55.3°F12.9°C 67% Calm Calm -- 30.00 in1015.9 mb 0.00 in0.0 mm 0.00 in0.0 mm 0.00 in0.0 mm
01:02 AM 66.6°F19.2°C 55.3°F12.9°C 67% Calm Calm -- 30.00 in1015.9 mb 0.00 in0.0 mm 0.00 in0.0 mm 0.00 in0.0 mm
12:57 AM 66.7°F19.3°C 55.4°F13.0°C 67% 1.0 mph N1.6 kmh N -- 30.00 in1015.9 mb 0.00 in0.0 mm 0.00 in0.0 mm 0.00 in0.0 mm
12:52 AM 66.7°F19.3°C 55.4°F13.0°C 67% 1.0 mph N1.6 kmh N -- 30.00 in1015.9 mb 0.00 in0.0 mm 0.00 in0.0 mm 0.00 in0.0 mm
12:47 AM 66.9°F19.4°C 55.6°F13.1°C 67% 1.0 mph SSW1.6 kmh SSW -- 30.00 in1015.9 mb 0.00 in0.0 mm 0.00 in0.0 mm 0.00 in0.0 mm
12:42 AM 66.9°F19.4°C 55.6°F13.1°C 67% 1.0 mph SSW1.6 kmh SSW -- 30.00 in1015.9 mb 0.00 in0.0 mm 0.00 in0.0 mm 0.00 in0.0 mm
12:37 AM 67.1°F19.5°C 55.4°F13.0°C 66% 1.0 mph SSW1.6 kmh SSW -- 30.00 in1015.9 mb 0.00 in0.0 mm 0.00 in0.0 mm 0.00 in0.0 mm
12:32 AM 67.1°F19.5°C 55.4°F13.0°C 66% 1.0 mph SSW1.6 kmh SSW -- 30.00 in1015.9 mb 0.00 in0.0 mm 0.00 in0.0 mm 0.00 in0.0 mm
12:27 AM 67.3°F19.6°C 55.5°F13.1°C 66% 1.0 mph N1.6 kmh N -- 30.00 in1015.9 mb 0.00 in0.0 mm 0.00 in0.0 mm 0.00 in0.0 mm
12:22 AM 67.3°F19.6°C 55.5°F13.1°C 66% 1.0 mph N1.6 kmh N -- 30.00 in1015.9 mb 0.00 in0.0 mm 0.00 in0.0 mm 0.00 in0.0 mm
12:17 AM 67.5°F19.7°C 55.7°F13.2°C 66% 1.0 mph N1.6 kmh N -- 29.99 in1015.6 mb 0.00 in0.0 mm 0.00 in0.0 mm 0.00 in0.0 mm
12:12 AM 67.5°F19.7°C 55.7°F13.2°C 66% 1.0 mph N1.6 kmh N -- 29.99 in1015.6 mb 0.00 in0.0 mm 0.00 in0.0 mm 0.00 in0.0 mm
12:07 AM 67.6°F19.8°C 55.9°F13.3°C 66% 1.0 mph SW1.6 kmh SW -- 29.99 in1015.6 mb 0.00 in0.0 mm 0.00 in0.0 mm 0.00 in0.0 mm
12:02 AM 67.6°F19.8°C 55.9°F13.3°C 66% 1.0 mph SW1.6 kmh SW -- 29.99 in1015.6 mb 0.00 in0.0 mm 0.00 in0.0 mm 0.00 in0.0 mm